Claymont, Delaware
Current Conditions -  °F | °C
As of 5:51 PM on Monday 22 Dec 2014 (Local Time) from KILG Reporting Station
Overcast Overcast  
Wind Chill:   Ceiling: 7500
Heat Index:   Visibility: 10mi
Dew Point:   Wind: 12mph
Humidity: 76%   Direction: 50°NE
Pressure: 30.17"   Gusts: NA
Location:  39.8°N, 75.46°W
Report Text: KILG 222251Z 05010KT 10SM FEW022 OVC075 06/02 A3017 RMK AO2 RAB28E43 SLP217 P0000 T00610022
Loading
Personal Weather Stations






























Interactive Weather Map New forecast layout! Learn more

10-Day Weather Forecast

Advertisements
Track Severe Weather on mobile